sensor_id;sensor_type;location;lat;lon;timestamp;P1;durP1;ratioP1;P2;durP2;ratioP2
59516;SDS011;45342;42.662;27.718;2023-04-05T00:01:27;2.25;;;1.20;;
59516;SDS011;45342;42.662;27.718;2023-04-05T00:03:53;1.23;;;0.80;;
59516;SDS011;45342;42.662;27.718;2023-04-05T00:06:21;2.03;;;0.90;;
59516;SDS011;45342;42.662;27.718;2023-04-05T00:08:54;1.05;;;0.95;;
59516;SDS011;45342;42.662;27.718;2023-04-05T00:11:24;1.00;;;1.00;;
59516;SDS011;45342;42.662;27.718;2023-04-05T00:13:51;1.20;;;0.82;;
59516;SDS011;45342;42.662;27.718;2023-04-05T00:16:17;2.47;;;0.90;;
59516;SDS011;45342;42.662;27.718;2023-04-05T00:21:22;1.92;;;1.10;;
59516;SDS011;45342;42.662;27.718;2023-04-05T00:23:48;1.30;;;0.98;;
59516;SDS011;45342;42.662;27.718;2023-04-05T00:26:18;3.03;;;1.40;;
59516;SDS011;45342;42.662;27.718;2023-04-05T00:28:45;2.15;;;1.48;;
59516;SDS011;45342;42.662;27.718;2023-04-05T00:31:11;1.83;;;1.23;;
59516;SDS011;45342;42.662;27.718;2023-04-05T00:33:37;1.42;;;1.20;;
59516;SDS011;45342;42.662;27.718;2023-04-05T00:36:16;2.05;;;1.05;;
59516;SDS011;45342;42.662;27.718;2023-04-05T00:38:44;2.42;;;0.90;;
59516;SDS011;45342;42.662;27.718;2023-04-05T00:41:12;1.10;;;1.00;;
59516;SDS011;45342;42.662;27.718;2023-04-05T00:43:38;1.00;;;0.90;;
59516;SDS011;45342;42.662;27.718;2023-04-05T00:46:05;1.10;;;1.00;;
59516;SDS011;45342;42.662;27.718;2023-04-05T00:48:31;2.45;;;1.00;;
59516;SDS011;45342;42.662;27.718;2023-04-05T00:50:59;1.10;;;1.00;;
59516;SDS011;45342;42.662;27.718;2023-04-05T00:53:24;1.80;;;1.02;;
59516;SDS011;45342;42.662;27.718;2023-04-05T00:55:53;1.15;;;0.85;;
59516;SDS011;45342;42.662;27.718;2023-04-05T00:58:19;1.13;;;1.00;;
59516;SDS011;45342;42.662;27.718;2023-04-05T01:00:50;1.20;;;1.00;;
59516;SDS011;45342;42.662;27.718;2023-04-05T01:03:24;0.70;;;0.70;;
59516;SDS011;45342;42.662;27.718;2023-04-05T01:05:58;0.77;;;0.60;;
59516;SDS011;45342;42.662;27.718;2023-04-05T01:08:36;1.02;;;0.82;;
59516;SDS011;45342;42.662;27.718;2023-04-05T01:11:23;1.45;;;0.88;;
59516;SDS011;45342;42.662;27.718;2023-04-05T01:13:56;3.80;;;0.80;;
59516;SDS011;45342;42.662;27.718;2023-04-05T01:16:22;1.25;;;0.73;;
59516;SDS011;45342;42.662;27.718;2023-04-05T01:18:49;0.75;;;0.75;;
59516;SDS011;45342;42.662;27.718;2023-04-05T01:27:06;2.47;;;0.70;;
59516;SDS011;45342;42.662;27.718;2023-04-05T01:35:24;2.08;;;0.77;;
59516;SDS011;45342;42.662;27.718;2023-04-05T01:38:06;1.05;;;0.80;;
59516;SDS011;45342;42.662;27.718;2023-04-05T01:40:34;0.98;;;0.60;;
59516;SDS011;45342;42.662;27.718;2023-04-05T01:43:01;1.45;;;0.80;;
59516;SDS011;45342;42.662;27.718;2023-04-05T01:45:27;0.57;;;0.50;;
59516;SDS011;45342;42.662;27.718;2023-04-05T01:47:54;0.85;;;0.63;;
59516;SDS011;45342;42.662;27.718;2023-04-05T01:50:20;0.85;;;0.73;;
59516;SDS011;45342;42.662;27.718;2023-04-05T01:52:45;0.60;;;0.60;;
59516;SDS011;45342;42.662;27.718;2023-04-05T01:55:11;0.63;;;0.55;;
59516;SDS011;45342;42.662;27.718;2023-04-05T01:57:37;2.00;;;0.80;;
59516;SDS011;45342;42.662;27.718;2023-04-05T02:00:03;0.50;;;0.50;;
59516;SDS011;45342;42.662;27.718;2023-04-05T02:04:54;0.85;;;0.77;;
59516;SDS011;45342;42.662;27.718;2023-04-05T02:07:20;0.95;;;0.52;;
59516;SDS011;45342;42.662;27.718;2023-04-05T02:09:45;0.52;;;0.50;;
59516;SDS011;45342;42.662;27.718;2023-04-05T02:12:11;0.50;;;0.50;;
59516;SDS011;45342;42.662;27.718;2023-04-05T02:14:36;2.75;;;0.50;;
59516;SDS011;45342;42.662;27.718;2023-04-05T02:17:03;0.50;;;0.50;;
59516;SDS011;45342;42.662;27.718;2023-04-05T02:19:29;0.52;;;0.52;;
59516;SDS011;45342;42.662;27.718;2023-04-05T02:22:01;2.35;;;0.60;;
59516;SDS011;45342;42.662;27.718;2023-04-05T02:24:27;0.52;;;0.40;;
59516;SDS011;45342;42.662;27.718;2023-04-05T02:26:53;0.93;;;0.40;;
59516;SDS011;45342;42.662;27.718;2023-04-05T02:29:19;1.58;;;0.40;;
59516;SDS011;45342;42.662;27.718;2023-04-05T02:31:44;0.50;;;0.50;;
59516;SDS011;45342;42.662;27.718;2023-04-05T02:34:10;0.95;;;0.45;;
59516;SDS011;45342;42.662;27.718;2023-04-05T02:36:36;0.40;;;0.40;;
59516;SDS011;45342;42.662;27.718;2023-04-05T02:39:01;0.38;;;0.38;;
59516;SDS011;45342;42.662;27.718;2023-04-05T02:41:28;0.55;;;0.43;;
59516;SDS011;45342;42.662;27.718;2023-04-05T02:43:53;1.55;;;0.40;;
59516;SDS011;45342;42.662;27.718;2023-04-05T02:46:19;0.75;;;0.40;;
59516;SDS011;45342;42.662;27.718;2023-04-05T02:48:45;0.75;;;0.52;;
59516;SDS011;45342;42.662;27.718;2023-04-05T02:51:10;0.30;;;0.30;;
59516;SDS011;45342;42.662;27.718;2023-04-05T02:53:36;0.88;;;0.40;;
59516;SDS011;45342;42.662;27.718;2023-04-05T02:56:01;0.73;;;0.35;;
59516;SDS011;45342;42.662;27.718;2023-04-05T02:58:27;0.55;;;0.55;;
59516;SDS011;45342;42.662;27.718;2023-04-05T03:00:53;0.60;;;0.60;;
59516;SDS011;45342;42.662;27.718;2023-04-05T03:03:20;0.47;;;0.47;;
59516;SDS011;45342;42.662;27.718;2023-04-05T03:08:13;1.10;;;0.35;;
59516;SDS011;45342;42.662;27.718;2023-04-05T03:10:45;2.28;;;0.40;;
59516;SDS011;45342;42.662;27.718;2023-04-05T03:13:11;0.60;;;0.60;;
59516;SDS011;45342;42.662;27.718;2023-04-05T03:15:38;0.40;;;0.40;;
59516;SDS011;45342;42.662;27.718;2023-04-05T03:18:03;0.40;;;0.40;;
59516;SDS011;45342;42.662;27.718;2023-04-05T03:20:29;1.75;;;0.57;;
59516;SDS011;45342;42.662;27.718;2023-04-05T03:22:55;0.35;;;0.35;;
59516;SDS011;45342;42.662;27.718;2023-04-05T03:25:20;0.40;;;0.40;;
59516;SDS011;45342;42.662;27.718;2023-04-05T03:27:46;0.52;;;0.40;;
59516;SDS011;45342;42.662;27.718;2023-04-05T03:30:11;0.40;;;0.40;;
59516;SDS011;45342;42.662;27.718;2023-04-05T03:32:37;0.45;;;0.45;;
59516;SDS011;45342;42.662;27.718;2023-04-05T03:35:03;1.70;;;0.40;;
59516;SDS011;45342;42.662;27.718;2023-04-05T03:37:28;0.32;;;0.32;;
59516;SDS011;45342;42.662;27.718;2023-04-05T03:39:55;0.30;;;0.30;;
59516;SDS011;45342;42.662;27.718;2023-04-05T03:44:48;0.30;;;0.30;;
59516;SDS011;45342;42.662;27.718;2023-04-05T03:47:16;1.75;;;0.47;;
59516;SDS011;45342;42.662;27.718;2023-04-05T03:49:41;0.50;;;0.50;;
59516;SDS011;45342;42.662;27.718;2023-04-05T03:52:07;0.50;;;0.50;;
59516;SDS011;45342;42.662;27.718;2023-04-05T03:57:00;0.85;;;0.50;;
59516;SDS011;45342;42.662;27.718;2023-04-05T03:59:26;0.50;;;0.50;;
59516;SDS011;45342;42.662;27.718;2023-04-05T04:01:53;1.95;;;0.47;;
59516;SDS011;45342;42.662;27.718;2023-04-05T04:04:18;0.52;;;0.40;;
59516;SDS011;45342;42.662;27.718;2023-04-05T04:06:45;0.40;;;0.40;;
59516;SDS011;45342;42.662;27.718;2023-04-05T04:09:10;0.63;;;0.40;;
59516;SDS011;45342;42.662;27.718;2023-04-05T04:11:37;2.58;;;0.63;;
59516;SDS011;45342;42.662;27.718;2023-04-05T04:14:03;0.63;;;0.63;;
59516;SDS011;45342;42.662;27.718;2023-04-05T04:16:28;0.50;;;0.50;;
59516;SDS011;45342;42.662;27.718;2023-04-05T04:18:54;0.57;;;0.57;;
59516;SDS011;45342;42.662;27.718;2023-04-05T04:21:20;1.55;;;0.50;;
59516;SDS011;45342;42.662;27.718;2023-04-05T04:23:49;0.80;;;0.50;;
59516;SDS011;45342;42.662;27.718;2023-04-05T04:26:16;1.42;;;0.40;;
59516;SDS011;45342;42.662;27.718;2023-04-05T04:31:18;0.60;;;0.40;;
59516;SDS011;45342;42.662;27.718;2023-04-05T04:33:46;1.27;;;0.50;;
59516;SDS011;45342;42.662;27.718;2023-04-05T04:36:13;1.23;;;0.40;;
59516;SDS011;45342;42.662;27.718;2023-04-05T04:38:42;0.50;;;0.50;;
59516;SDS011;45342;42.662;27.718;2023-04-05T04:41:12;0.40;;;0.40;;
59516;SDS011;45342;42.662;27.718;2023-04-05T04:43:38;0.60;;;0.60;;
59516;SDS011;45342;42.662;27.718;2023-04-05T04:46:12;0.38;;;0.38;;
59516;SDS011;45342;42.662;27.718;2023-04-05T04:48:43;0.40;;;0.40;;
59516;SDS011;45342;42.662;27.718;2023-04-05T04:51:08;0.47;;;0.47;;
59516;SDS011;45342;42.662;27.718;2023-04-05T04:53:34;0.50;;;0.50;;
59516;SDS011;45342;42.662;27.718;2023-04-05T04:56:00;0.50;;;0.50;;
59516;SDS011;45342;42.662;27.718;2023-04-05T04:58:25;0.60;;;0.60;;
59516;SDS011;45342;42.662;27.718;2023-04-05T05:00:51;0.90;;;0.50;;
59516;SDS011;45342;42.662;27.718;2023-04-05T05:03:17;3.85;;;0.60;;
59516;SDS011;45342;42.662;27.718;2023-04-05T05:05:43;1.05;;;0.60;;
59516;SDS011;45342;42.662;27.718;2023-04-05T05:08:11;0.90;;;0.80;;
59516;SDS011;45342;42.662;27.718;2023-04-05T05:10:37;2.50;;;0.80;;
59516;SDS011;45342;42.662;27.718;2023-04-05T05:13:02;0.80;;;0.70;;
59516;SDS011;45342;42.662;27.718;2023-04-05T05:15:28;1.00;;;0.90;;
59516;SDS011;45342;42.662;27.718;2023-04-05T05:17:53;0.70;;;0.70;;
59516;SDS011;45342;42.662;27.718;2023-04-05T05:20:20;1.73;;;0.95;;
59516;SDS011;45342;42.662;27.718;2023-04-05T05:22:48;0.98;;;0.80;;
59516;SDS011;45342;42.662;27.718;2023-04-05T05:25:15;0.65;;;0.65;;
59516;SDS011;45342;42.662;27.718;2023-04-05T05:27:41;1.00;;;0.90;;
59516;SDS011;45342;42.662;27.718;2023-04-05T05:30:07;0.90;;;0.80;;
59516;SDS011;45342;42.662;27.718;2023-04-05T05:34:58;0.85;;;0.85;;
59516;SDS011;45342;42.662;27.718;2023-04-05T05:37:30;0.90;;;0.90;;
59516;SDS011;45342;42.662;27.718;2023-04-05T05:39:57;0.95;;;0.80;;
59516;SDS011;45342;42.662;27.718;2023-04-05T05:42:25;1.38;;;1.10;;
59516;SDS011;45342;42.662;27.718;2023-04-05T05:44:54;2.88;;;1.40;;
59516;SDS011;45342;42.662;27.718;2023-04-05T05:47:19;2.25;;;1.60;;
59516;SDS011;45342;42.662;27.718;2023-04-05T05:49:45;5.35;;;1.98;;
59516;SDS011;45342;42.662;27.718;2023-04-05T05:52:10;2.28;;;1.45;;
59516;SDS011;45342;42.662;27.718;2023-04-05T05:54:39;2.30;;;1.30;;
59516;SDS011;45342;42.662;27.718;2023-04-05T05:57:14;2.30;;;1.35;;
59516;SDS011;45342;42.662;27.718;2023-04-05T05:59:46;1.70;;;1.42;;
59516;SDS011;45342;42.662;27.718;2023-04-05T06:02:20;2.55;;;1.50;;
59516;SDS011;45342;42.662;27.718;2023-04-05T06:04:46;3.53;;;1.40;;
59516;SDS011;45342;42.662;27.718;2023-04-05T06:07:16;1.73;;;1.42;;
59516;SDS011;45342;42.662;27.718;2023-04-05T06:09:42;1.80;;;1.50;;
59516;SDS011;45342;42.662;27.718;2023-04-05T06:12:09;1.65;;;1.27;;
59516;SDS011;45342;42.662;27.718;2023-04-05T06:17:01;1.52;;;1.30;;
59516;SDS011;45342;42.662;27.718;2023-04-05T06:19:27;3.38;;;1.60;;
59516;SDS011;45342;42.662;27.718;2023-04-05T06:21:53;1.88;;;1.27;;
59516;SDS011;45342;42.662;27.718;2023-04-05T06:24:39;2.22;;;1.80;;
59516;SDS011;45342;42.662;27.718;2023-04-05T06:27:04;1.75;;;1.30;;
59516;SDS011;45342;42.662;27.718;2023-04-05T06:29:31;1.92;;;1.38;;
59516;SDS011;45342;42.662;27.718;2023-04-05T06:32:00;1.52;;;1.30;;
59516;SDS011;45342;42.662;27.718;2023-04-05T06:34:26;1.60;;;1.50;;
59516;SDS011;45342;42.662;27.718;2023-04-05T06:36:52;1.95;;;1.55;;
59516;SDS011;45342;42.662;27.718;2023-04-05T06:39:17;1.52;;;1.15;;
59516;SDS011;45342;42.662;27.718;2023-04-05T06:41:43;3.08;;;1.40;;
59516;SDS011;45342;42.662;27.718;2023-04-05T06:44:10;3.47;;;1.40;;
59516;SDS011;45342;42.662;27.718;2023-04-05T06:46:36;1.67;;;1.20;;
59516;SDS011;45342;42.662;27.718;2023-04-05T06:49:01;1.20;;;1.10;;
59516;SDS011;45342;42.662;27.718;2023-04-05T06:51:27;2.70;;;1.55;;
59516;SDS011;45342;42.662;27.718;2023-04-05T06:56:19;4.85;;;2.30;;
59516;SDS011;45342;42.662;27.718;2023-04-05T06:58:45;2.38;;;1.17;;
59516;SDS011;45342;42.662;27.718;2023-04-05T07:01:13;2.17;;;1.52;;
59516;SDS011;45342;42.662;27.718;2023-04-05T07:03:39;2.67;;;1.40;;
59516;SDS011;45342;42.662;27.718;2023-04-05T07:06:05;2.13;;;1.27;;
59516;SDS011;45342;42.662;27.718;2023-04-05T07:08:31;1.40;;;1.30;;
59516;SDS011;45342;42.662;27.718;2023-04-05T07:10:57;2.05;;;1.35;;
59516;SDS011;45342;42.662;27.718;2023-04-05T07:13:23;1.65;;;1.38;;
59516;SDS011;45342;42.662;27.718;2023-04-05T07:15:50;3.95;;;1.50;;
59516;SDS011;45342;42.662;27.718;2023-04-05T07:18:16;2.70;;;1.65;;
59516;SDS011;45342;42.662;27.718;2023-04-05T07:20:43;4.47;;;1.73;;
59516;SDS011;45342;42.662;27.718;2023-04-05T07:23:10;2.38;;;1.33;;
59516;SDS011;45342;42.662;27.718;2023-04-05T07:25:38;2.80;;;1.52;;
59516;SDS011;45342;42.662;27.718;2023-04-05T07:28:04;1.90;;;1.38;;
59516;SDS011;45342;42.662;27.718;2023-04-05T07:30:30;2.83;;;1.38;;
59516;SDS011;45342;42.662;27.718;2023-04-05T07:32:56;4.18;;;1.20;;
59516;SDS011;45342;42.662;27.718;2023-04-05T07:37:48;3.13;;;1.20;;
59516;SDS011;45342;42.662;27.718;2023-04-05T07:40:13;5.25;;;1.45;;
59516;SDS011;45342;42.662;27.718;2023-04-05T07:42:39;1.65;;;1.13;;
59516;SDS011;45342;42.662;27.718;2023-04-05T07:45:05;2.45;;;1.50;;
59516;SDS011;45342;42.662;27.718;2023-04-05T07:47:34;3.67;;;1.90;;
59516;SDS011;45342;42.662;27.718;2023-04-05T07:50:00;1.52;;;1.10;;
59516;SDS011;45342;42.662;27.718;2023-04-05T07:54:56;1.95;;;1.27;;
59516;SDS011;45342;42.662;27.718;2023-04-05T07:57:24;2.83;;;1.20;;
59516;SDS011;45342;42.662;27.718;2023-04-05T07:59:49;3.00;;;1.48;;
59516;SDS011;45342;42.662;27.718;2023-04-05T08:02:16;3.33;;;1.55;;
59516;SDS011;45342;42.662;27.718;2023-04-05T08:04:42;2.72;;;1.23;;
59516;SDS011;45342;42.662;27.718;2023-04-05T08:07:08;2.05;;;1.20;;
59516;SDS011;45342;42.662;27.718;2023-04-05T08:09:34;1.80;;;1.30;;
59516;SDS011;45342;42.662;27.718;2023-04-05T08:12:00;2.50;;;1.45;;
59516;SDS011;45342;42.662;27.718;2023-04-05T08:14:27;1.65;;;1.27;;
59516;SDS011;45342;42.662;27.718;2023-04-05T08:19:37;3.10;;;1.83;;
59516;SDS011;45342;42.662;27.718;2023-04-05T08:22:02;2.22;;;1.25;;
59516;SDS011;45342;42.662;27.718;2023-04-05T08:24:28;2.42;;;1.48;;
59516;SDS011;45342;42.662;27.718;2023-04-05T08:26:53;1.88;;;1.40;;
59516;SDS011;45342;42.662;27.718;2023-04-05T08:29:20;3.20;;;1.58;;
59516;SDS011;45342;42.662;27.718;2023-04-05T08:31:45;2.60;;;1.58;;
59516;SDS011;45342;42.662;27.718;2023-04-05T08:34:11;1.88;;;1.40;;
59516;SDS011;45342;42.662;27.718;2023-04-05T08:36:37;3.63;;;1.92;;
59516;SDS011;45342;42.662;27.718;2023-04-05T08:39:02;3.55;;;1.70;;
59516;SDS011;45342;42.662;27.718;2023-04-05T08:41:35;2.88;;;1.52;;
59516;SDS011;45342;42.662;27.718;2023-04-05T08:44:02;5.72;;;1.65;;
59516;SDS011;45342;42.662;27.718;2023-04-05T08:46:30;4.20;;;2.00;;
59516;SDS011;45342;42.662;27.718;2023-04-05T08:48:57;2.80;;;1.88;;
59516;SDS011;45342;42.662;27.718;2023-04-05T08:51:23;3.05;;;1.90;;
59516;SDS011;45342;42.662;27.718;2023-04-05T08:53:51;6.40;;;1.58;;
59516;SDS011;45342;42.662;27.718;2023-04-05T08:56:20;3.78;;;1.92;;
59516;SDS011;45342;42.662;27.718;2023-04-05T09:01:35;2.70;;;1.63;;
59516;SDS011;45342;42.662;27.718;2023-04-05T09:04:06;5.10;;;2.15;;
59516;SDS011;45342;42.662;27.718;2023-04-05T09:06:37;5.63;;;2.35;;
59516;SDS011;45342;42.662;27.718;2023-04-05T09:09:06;3.85;;;2.10;;
59516;SDS011;45342;42.662;27.718;2023-04-05T09:11:35;6.40;;;2.10;;
59516;SDS011;45342;42.662;27.718;2023-04-05T09:14:02;8.40;;;2.35;;
59516;SDS011;45342;42.662;27.718;2023-04-05T09:16:29;6.55;;;2.45;;
59516;SDS011;45342;42.662;27.718;2023-04-05T09:18:56;7.13;;;2.70;;
59516;SDS011;45342;42.662;27.718;2023-04-05T09:21:22;6.95;;;2.58;;
59516;SDS011;45342;42.662;27.718;2023-04-05T09:23:51;5.88;;;2.30;;
59516;SDS011;45342;42.662;27.718;2023-04-05T09:26:24;6.22;;;2.72;;
59516;SDS011;45342;42.662;27.718;2023-04-05T09:28:49;5.15;;;2.88;;
59516;SDS011;45342;42.662;27.718;2023-04-05T09:31:28;11.35;;;2.70;;
59516;SDS011;45342;42.662;27.718;2023-04-05T09:33:58;5.00;;;2.50;;
59516;SDS011;45342;42.662;27.718;2023-04-05T09:36:26;5.93;;;2.88;;
59516;SDS011;45342;42.662;27.718;2023-04-05T09:38:52;4.63;;;2.42;;
59516;SDS011;45342;42.662;27.718;2023-04-05T09:41:18;4.15;;;2.58;;
59516;SDS011;45342;42.662;27.718;2023-04-05T09:43:43;5.43;;;2.75;;
59516;SDS011;45342;42.662;27.718;2023-04-05T09:46:42;4.95;;;2.70;;
59516;SDS011;45342;42.662;27.718;2023-04-05T09:49:01;6.28;;;3.10;;
59516;SDS011;45342;42.662;27.718;2023-04-05T09:54:04;5.68;;;2.60;;
59516;SDS011;45342;42.662;27.718;2023-04-05T09:56:37;4.07;;;2.80;;
59516;SDS011;45342;42.662;27.718;2023-04-05T09:59:09;5.97;;;2.72;;
59516;SDS011;45342;42.662;27.718;2023-04-05T10:01:42;5.55;;;2.80;;
59516;SDS011;45342;42.662;27.718;2023-04-05T10:04:08;5.10;;;2.85;;
59516;SDS011;45342;42.662;27.718;2023-04-05T10:06:37;9.25;;;3.15;;
59516;SDS011;45342;42.662;27.718;2023-04-05T10:09:04;9.10;;;4.03;;
59516;SDS011;45342;42.662;27.718;2023-04-05T10:11:36;5.47;;;3.30;;
59516;SDS011;45342;42.662;27.718;2023-04-05T10:14:04;6.82;;;3.40;;
59516;SDS011;45342;42.662;27.718;2023-04-05T10:16:32;6.32;;;3.25;;
59516;SDS011;45342;42.662;27.718;2023-04-05T10:19:01;6.60;;;3.65;;
59516;SDS011;45342;42.662;27.718;2023-04-05T10:21:32;3.88;;;3.20;;
59516;SDS011;45342;42.662;27.718;2023-04-05T10:24:04;7.18;;;3.05;;
59516;SDS011;45342;42.662;27.718;2023-04-05T10:29:29;7.68;;;3.38;;
59516;SDS011;45342;42.662;27.718;2023-04-05T10:32:24;4.82;;;3.13;;
59516;SDS011;45342;42.662;27.718;2023-04-05T10:37:59;7.60;;;3.65;;
59516;SDS011;45342;42.662;27.718;2023-04-05T10:40:46;4.90;;;3.30;;
59516;SDS011;45342;42.662;27.718;2023-04-05T10:43:16;5.90;;;3.72;;
59516;SDS011;45342;42.662;27.718;2023-04-05T10:45:46;7.90;;;4.05;;
59516;SDS011;45342;42.662;27.718;2023-04-05T10:51:16;6.90;;;3.70;;
59516;SDS011;45342;42.662;27.718;2023-04-05T10:53:41;6.07;;;4.07;;
59516;SDS011;45342;42.662;27.718;2023-04-05T10:58:34;6.75;;;3.65;;
59516;SDS011;45342;42.662;27.718;2023-04-05T11:01:00;5.30;;;3.83;;
59516;SDS011;45342;42.662;27.718;2023-04-05T11:06:39;7.30;;;4.00;;
59516;SDS011;45342;42.662;27.718;2023-04-05T11:11:40;5.32;;;3.95;;
59516;SDS011;45342;42.662;27.718;2023-04-05T11:16:44;6.68;;;4.07;;
59516;SDS011;45342;42.662;27.718;2023-04-05T11:19:11;5.35;;;3.80;;
59516;SDS011;45342;42.662;27.718;2023-04-05T11:21:36;7.95;;;4.30;;
59516;SDS011;45342;42.662;27.718;2023-04-05T11:24:03;7.75;;;3.97;;
59516;SDS011;45342;42.662;27.718;2023-04-05T11:26:32;8.52;;;3.95;;
59516;SDS011;45342;42.662;27.718;2023-04-05T11:29:14;7.78;;;4.28;;
59516;SDS011;45342;42.662;27.718;2023-04-05T11:31:59;7.80;;;4.43;;
59516;SDS011;45342;42.662;27.718;2023-04-05T11:34:30;7.05;;;4.15;;
59516;SDS011;45342;42.662;27.718;2023-04-05T11:37:00;10.32;;;4.90;;
59516;SDS011;45342;42.662;27.718;2023-04-05T11:39:26;9.88;;;5.30;;
59516;SDS011;45342;42.662;27.718;2023-04-05T11:44:23;9.10;;;4.25;;
59516;SDS011;45342;42.662;27.718;2023-04-05T11:46:49;7.72;;;4.63;;
59516;SDS011;45342;42.662;27.718;2023-04-05T11:49:16;8.77;;;4.80;;
59516;SDS011;45342;42.662;27.718;2023-04-05T11:51:41;6.97;;;4.60;;
59516;SDS011;45342;42.662;27.718;2023-04-05T11:54:08;10.60;;;5.60;;
59516;SDS011;45342;42.662;27.718;2023-04-05T11:56:34;8.70;;;5.07;;
59516;SDS011;45342;42.662;27.718;2023-04-05T11:59:00;11.68;;;6.00;;
59516;SDS011;45342;42.662;27.718;2023-04-05T12:01:26;13.75;;;5.80;;
59516;SDS011;45342;42.662;27.718;2023-04-05T12:03:52;12.55;;;6.20;;
59516;SDS011;45342;42.662;27.718;2023-04-05T12:06:22;11.02;;;5.88;;
59516;SDS011;45342;42.662;27.718;2023-04-05T12:08:49;16.60;;;5.45;;
59516;SDS011;45342;42.662;27.718;2023-04-05T12:11:15;11.73;;;6.10;;
59516;SDS011;45342;42.662;27.718;2023-04-05T12:13:47;13.93;;;6.22;;
59516;SDS011;45342;42.662;27.718;2023-04-05T12:16:13;12.10;;;5.70;;
59516;SDS011;45342;42.662;27.718;2023-04-05T12:18:39;9.55;;;5.50;;
59516;SDS011;45342;42.662;27.718;2023-04-05T12:21:05;10.55;;;5.45;;
59516;SDS011;45342;42.662;27.718;2023-04-05T12:23:32;10.45;;;5.88;;
59516;SDS011;45342;42.662;27.718;2023-04-05T12:25:58;13.63;;;6.30;;
59516;SDS011;45342;42.662;27.718;2023-04-05T12:28:24;11.35;;;5.43;;
59516;SDS011;45342;42.662;27.718;2023-04-05T12:30:54;7.63;;;5.05;;
59516;SDS011;45342;42.662;27.718;2023-04-05T12:33:26;8.88;;;5.20;;
59516;SDS011;45342;42.662;27.718;2023-04-05T12:35:53;10.88;;;5.70;;
59516;SDS011;45342;42.662;27.718;2023-04-05T12:38:18;9.18;;;5.40;;
59516;SDS011;45342;42.662;27.718;2023-04-05T12:40:44;9.65;;;5.40;;
59516;SDS011;45342;42.662;27.718;2023-04-05T12:43:11;7.68;;;5.18;;
59516;SDS011;45342;42.662;27.718;2023-04-05T12:45:43;10.10;;;5.47;;
59516;SDS011;45342;42.662;27.718;2023-04-05T12:50:43;9.88;;;5.40;;
59516;SDS011;45342;42.662;27.718;2023-04-05T12:53:19;7.93;;;5.32;;
59516;SDS011;45342;42.662;27.718;2023-04-05T12:58:15;9.65;;;5.25;;
59516;SDS011;45342;42.662;27.718;2023-04-05T13:00:42;10.85;;;5.32;;
59516;SDS011;45342;42.662;27.718;2023-04-05T13:03:14;8.68;;;5.68;;
59516;SDS011;45342;42.662;27.718;2023-04-05T13:05:41;11.48;;;5.82;;
59516;SDS011;45342;42.662;27.718;2023-04-05T13:08:06;9.85;;;5.63;;
59516;SDS011;45342;42.662;27.718;2023-04-05T13:10:32;9.18;;;5.88;;
59516;SDS011;45342;42.662;27.718;2023-04-05T13:12:57;8.52;;;5.40;;
59516;SDS011;45342;42.662;27.718;2023-04-05T13:15:23;8.02;;;5.70;;
59516;SDS011;45342;42.662;27.718;2023-04-05T13:17:49;11.35;;;6.20;;
59516;SDS011;45342;42.662;27.718;2023-04-05T13:20:19;9.07;;;5.68;;
59516;SDS011;45342;42.662;27.718;2023-04-05T13:22:45;9.07;;;5.72;;
59516;SDS011;45342;42.662;27.718;2023-04-05T13:25:12;9.88;;;5.80;;
59516;SDS011;45342;42.662;27.718;2023-04-05T13:27:38;9.43;;;6.20;;
59516;SDS011;45342;42.662;27.718;2023-04-05T13:30:04;8.85;;;5.82;;
59516;SDS011;45342;42.662;27.718;2023-04-05T13:32:31;10.05;;;6.32;;
59516;SDS011;45342;42.662;27.718;2023-04-05T13:34:57;7.80;;;5.95;;
59516;SDS011;45342;42.662;27.718;2023-04-05T13:37:23;9.10;;;6.07;;
59516;SDS011;45342;42.662;27.718;2023-04-05T13:39:48;10.88;;;6.18;;
59516;SDS011;45342;42.662;27.718;2023-04-05T13:42:14;9.73;;;6.18;;
59516;SDS011;45342;42.662;27.718;2023-04-05T13:44:41;10.13;;;6.15;;
59516;SDS011;45342;42.662;27.718;2023-04-05T13:47:07;10.60;;;5.90;;
59516;SDS011;45342;42.662;27.718;2023-04-05T13:49:35;11.85;;;6.50;;
59516;SDS011;45342;42.662;27.718;2023-04-05T13:52:00;9.50;;;6.10;;
59516;SDS011;45342;42.662;27.718;2023-04-05T13:54:27;11.23;;;7.07;;
59516;SDS011;45342;42.662;27.718;2023-04-05T13:56:54;23.27;;;6.05;;
59516;SDS011;45342;42.662;27.718;2023-04-05T13:59:21;10.85;;;6.38;;
59516;SDS011;45342;42.662;27.718;2023-04-05T14:01:46;13.73;;;6.63;;
59516;SDS011;45342;42.662;27.718;2023-04-05T14:06:38;8.35;;;6.38;;
59516;SDS011;45342;42.662;27.718;2023-04-05T14:09:05;10.95;;;6.50;;
59516;SDS011;45342;42.662;27.718;2023-04-05T14:11:31;11.15;;;6.30;;
59516;SDS011;45342;42.662;27.718;2023-04-05T14:13:57;11.98;;;6.32;;
59516;SDS011;45342;42.662;27.718;2023-04-05T14:16:22;8.77;;;6.22;;
59516;SDS011;45342;42.662;27.718;2023-04-05T14:18:48;11.15;;;6.72;;
59516;SDS011;45342;42.662;27.718;2023-04-05T14:21:13;11.30;;;6.35;;
59516;SDS011;45342;42.662;27.718;2023-04-05T14:23:39;9.77;;;6.10;;
59516;SDS011;45342;42.662;27.718;2023-04-05T14:26:05;7.50;;;5.45;;
59516;SDS011;45342;42.662;27.718;2023-04-05T14:28:31;9.98;;;6.00;;
59516;SDS011;45342;42.662;27.718;2023-04-05T14:30:56;9.02;;;5.68;;
59516;SDS011;45342;42.662;27.718;2023-04-05T14:33:23;9.45;;;5.90;;
59516;SDS011;45342;42.662;27.718;2023-04-05T14:35:50;8.23;;;5.82;;
59516;SDS011;45342;42.662;27.718;2023-04-05T14:38:16;9.00;;;5.97;;
59516;SDS011;45342;42.662;27.718;2023-04-05T14:40:42;10.15;;;6.40;;
59516;SDS011;45342;42.662;27.718;2023-04-05T14:43:07;9.75;;;6.03;;
59516;SDS011;45342;42.662;27.718;2023-04-05T14:45:33;9.25;;;5.60;;
59516;SDS011;45342;42.662;27.718;2023-04-05T14:47:59;9.32;;;5.72;;
59516;SDS011;45342;42.662;27.718;2023-04-05T14:50:24;8.18;;;5.32;;
59516;SDS011;45342;42.662;27.718;2023-04-05T14:52:53;8.90;;;6.10;;
59516;SDS011;45342;42.662;27.718;2023-04-05T14:55:19;7.90;;;5.30;;
59516;SDS011;45342;42.662;27.718;2023-04-05T14:57:45;8.82;;;6.38;;
59516;SDS011;45342;42.662;27.718;2023-04-05T15:00:11;9.77;;;5.78;;
59516;SDS011;45342;42.662;27.718;2023-04-05T15:02:37;10.00;;;6.32;;
59516;SDS011;45342;42.662;27.718;2023-04-05T15:05:03;9.15;;;6.00;;
59516;SDS011;45342;42.662;27.718;2023-04-05T15:07:29;8.90;;;6.18;;
59516;SDS011;45342;42.662;27.718;2023-04-05T15:09:55;8.20;;;5.70;;
59516;SDS011;45342;42.662;27.718;2023-04-05T15:12:21;8.52;;;5.68;;
59516;SDS011;45342;42.662;27.718;2023-04-05T15:17:15;8.48;;;5.43;;
59516;SDS011;45342;42.662;27.718;2023-04-05T15:19:41;10.88;;;6.03;;
59516;SDS011;45342;42.662;27.718;2023-04-05T15:22:08;7.88;;;5.60;;
59516;SDS011;45342;42.662;27.718;2023-04-05T15:24:35;11.00;;;5.32;;
59516;SDS011;45342;42.662;27.718;2023-04-05T15:27:02;8.48;;;6.25;;
59516;SDS011;45342;42.662;27.718;2023-04-05T15:29:31;8.95;;;5.88;;
59516;SDS011;45342;42.662;27.718;2023-04-05T15:31:57;9.18;;;5.97;;
59516;SDS011;45342;42.662;27.718;2023-04-05T15:34:24;9.38;;;6.30;;
59516;SDS011;45342;42.662;27.718;2023-04-05T15:39:19;9.05;;;5.85;;
59516;SDS011;45342;42.662;27.718;2023-04-05T15:41:45;12.52;;;6.70;;
59516;SDS011;45342;42.662;27.718;2023-04-05T15:44:11;8.73;;;6.22;;
59516;SDS011;45342;42.662;27.718;2023-04-05T15:46:38;9.32;;;6.07;;
59516;SDS011;45342;42.662;27.718;2023-04-05T15:49:03;8.50;;;6.15;;
59516;SDS011;45342;42.662;27.718;2023-04-05T15:51:29;9.13;;;6.38;;
59516;SDS011;45342;42.662;27.718;2023-04-05T15:53:55;8.95;;;6.38;;
59516;SDS011;45342;42.662;27.718;2023-04-05T15:56:21;10.85;;;6.43;;